createdAt,value
2018-12-25T00:04:43.854Z,55.60
2018-12-25T00:09:48.865Z,55.50
2018-12-25T00:14:52.611Z,55.80
2018-12-25T00:19:56.465Z,55.50
2018-12-25T00:25:00.170Z,55.50
2018-12-25T00:30:04.670Z,55.60
2018-12-25T00:35:08.503Z,55.70
2018-12-25T00:40:12.523Z,55.40
2018-12-25T00:45:18.283Z,55.60
2018-12-25T00:50:21.792Z,55.40
2018-12-25T00:55:25.493Z,55.40
2018-12-25T01:00:29.351Z,56.00
2018-12-25T01:05:33.085Z,55.30
2018-12-25T01:10:36.783Z,55.40
2018-12-25T01:15:40.531Z,55.40
2018-12-25T01:20:44.430Z,55.40
2018-12-25T01:25:48.491Z,55.40
2018-12-25T01:30:52.229Z,55.50
2018-12-25T01:35:56.114Z,55.60
2018-12-25T01:40:59.877Z,55.50
2018-12-25T01:46:03.616Z,55.40
2018-12-25T01:51:08.072Z,55.50
2018-12-25T01:56:11.812Z,55.30
2018-12-25T02:01:15.563Z,55.40
2018-12-25T02:06:19.341Z,55.80
2018-12-25T02:11:23.087Z,55.40
2018-12-25T02:16:26.779Z,55.40
2018-12-25T02:21:30.489Z,55.30
2018-12-25T02:26:34.223Z,55.60
2018-12-25T02:31:37.901Z,55.40
2018-12-25T02:36:41.856Z,55.40
2018-12-25T02:41:45.611Z,55.40
2018-12-25T02:46:49.381Z,55.50
2018-12-25T02:51:53.158Z,55.70
2018-12-25T02:56:56.870Z,55.50
2018-12-25T03:02:00.643Z,55.50
2018-12-25T03:07:04.432Z,55.30
2018-12-25T03:12:08.243Z,55.60
2018-12-25T03:17:11.950Z,55.50
2018-12-25T03:22:15.842Z,55.50
2018-12-25T03:27:19.726Z,55.30
2018-12-25T03:32:23.454Z,55.40
2018-12-25T03:37:27.226Z,55.30
2018-12-25T03:42:30.926Z,55.40
2018-12-25T03:47:34.665Z,55.40
2018-12-25T03:52:38.400Z,55.30
2018-12-25T03:57:42.072Z,55.20
2018-12-25T04:02:45.740Z,55.60
2018-12-25T04:07:49.441Z,55.30
2018-12-25T04:12:53.284Z,55.50
2018-12-25T04:17:56.986Z,55.40
2018-12-25T04:23:01.081Z,55.30
2018-12-25T04:28:04.894Z,55.50
2018-12-25T04:33:08.589Z,55.50
2018-12-25T04:38:12.365Z,55.50
2018-12-25T04:43:16.046Z,55.30
2018-12-25T04:48:19.828Z,55.40
2018-12-25T04:53:23.603Z,55.20
2018-12-25T04:58:27.313Z,55.90
2018-12-25T05:03:31.063Z,55.50
2018-12-25T05:08:34.751Z,55.40
2018-12-25T05:13:38.406Z,55.30
2018-12-25T05:18:42.385Z,55.30
2018-12-25T05:23:46.224Z,55.10
2018-12-25T05:28:49.917Z,55.10
2018-12-25T05:33:53.650Z,55.10
2018-12-25T05:38:57.494Z,55.10
2018-12-25T05:44:01.699Z,55.00
2018-12-25T05:49:05.419Z,55.10
2018-12-25T05:54:09.176Z,55.00
2018-12-25T05:59:12.895Z,55.30
2018-12-25T06:04:16.550Z,55.00
2018-12-25T06:09:20.207Z,55.00
2018-12-25T06:14:23.977Z,55.10
2018-12-25T06:19:27.707Z,55.10
2018-12-25T06:24:31.537Z,55.00
2018-12-25T06:29:35.267Z,54.90
2018-12-25T06:34:39.113Z,54.80
2018-12-25T06:39:42.855Z,54.90
2018-12-25T06:44:46.531Z,54.80
2018-12-25T06:49:50.211Z,54.80
2018-12-25T06:54:53.980Z,54.80
2018-12-25T06:59:57.670Z,54.80
2018-12-25T07:05:01.427Z,54.70
2018-12-25T07:10:05.262Z,54.80
2018-12-25T07:15:09.053Z,54.90
2018-12-25T07:20:12.774Z,54.80
2018-12-25T07:25:16.521Z,54.90
2018-12-25T07:30:20.288Z,54.90
2018-12-25T07:35:24.032Z,54.80
2018-12-25T07:40:27.718Z,54.80
2018-12-25T07:45:31.393Z,55.00
2018-12-25T07:50:35.052Z,54.90
2018-12-25T07:55:38.765Z,54.80
2018-12-25T08:00:42.548Z,54.90
2018-12-25T08:05:46.282Z,54.80
2018-12-25T08:10:50.024Z,55.30
2018-12-25T08:15:53.680Z,54.90
2018-12-25T08:20:57.383Z,55.00
2018-12-25T08:26:01.171Z,54.90
2018-12-25T08:31:04.892Z,55.10
2018-12-25T08:36:08.672Z,54.90
2018-12-25T08:41:12.435Z,54.80
2018-12-25T08:46:16.128Z,55.00
2018-12-25T08:51:19.907Z,55.00
2018-12-25T08:56:23.630Z,55.10
2018-12-25T09:01:27.292Z,55.10
2018-12-25T09:06:31.273Z,54.80
2018-12-25T09:11:36.721Z,54.80
2018-12-25T09:16:40.483Z,54.70
2018-12-25T09:21:46.390Z,54.80
2018-12-25T09:26:49.932Z,54.70
2018-12-25T09:31:53.702Z,54.80
2018-12-25T09:36:57.402Z,54.80
2018-12-25T09:42:01.083Z,54.60
2018-12-25T09:47:04.800Z,54.60
2018-12-25T09:52:08.616Z,54.60
2018-12-25T09:57:12.486Z,54.60
2018-12-25T10:02:16.252Z,54.60
2018-12-25T10:07:20.883Z,54.50
2018-12-25T10:12:24.713Z,54.60
2018-12-25T10:17:28.581Z,54.80
2018-12-25T10:22:32.272Z,54.80
2018-12-25T10:27:36.097Z,54.80
2018-12-25T10:32:39.838Z,54.70
2018-12-25T10:37:43.615Z,54.60
2018-12-25T10:42:47.627Z,54.80
2018-12-25T10:47:51.435Z,54.80
2018-12-25T10:52:55.169Z,54.80
2018-12-25T10:57:58.870Z,54.60
2018-12-25T11:03:02.765Z,54.90
2018-12-25T11:08:06.527Z,54.80
2018-12-25T11:13:10.207Z,55.00
2018-12-25T11:18:14.119Z,54.80
2018-12-25T11:23:18.247Z,54.80
2018-12-25T11:28:22.002Z,54.80
2018-12-25T11:33:25.744Z,54.80
2018-12-25T11:38:29.695Z,54.70
2018-12-25T11:43:33.476Z,54.80
2018-12-25T11:48:37.247Z,54.80
2018-12-25T11:53:40.990Z,54.80
2018-12-25T11:58:44.943Z,54.80
2018-12-25T12:03:48.772Z,54.70
2018-12-25T12:08:52.649Z,54.70
2018-12-25T12:13:56.395Z,54.70
2018-12-25T12:19:00.589Z,54.70
2018-12-25T12:24:04.377Z,54.70
2018-12-25T12:29:08.434Z,54.60
2018-12-25T12:34:12.139Z,54.60
2018-12-25T12:39:15.976Z,54.60
2018-12-25T12:44:19.997Z,54.70
2018-12-25T12:49:23.765Z,54.60
2018-12-25T12:54:27.521Z,54.60
2018-12-25T12:59:31.159Z,55.10
2018-12-25T13:04:34.876Z,54.60
2018-12-25T13:09:38.824Z,54.60
2018-12-25T13:14:42.510Z,54.60
2018-12-25T13:19:46.329Z,54.50
2018-12-25T13:24:50.164Z,54.60
2018-12-25T13:29:54.101Z,54.60
2018-12-25T13:34:57.900Z,54.60
2018-12-25T13:40:01.675Z,55.20
2018-12-25T13:45:05.834Z,54.60
2018-12-25T13:50:09.904Z,54.60
2018-12-25T13:55:13.798Z,54.60
2018-12-25T14:00:17.595Z,54.60
2018-12-25T14:05:21.522Z,54.60
2018-12-25T14:10:25.246Z,54.60
2018-12-25T14:15:28.969Z,54.70
2018-12-25T14:20:34.652Z,54.60
2018-12-25T14:25:38.323Z,54.60
2018-12-25T14:30:44.068Z,54.60
2018-12-25T14:35:47.599Z,54.60
2018-12-25T14:40:51.439Z,54.60
2018-12-25T14:45:55.317Z,54.60
2018-12-25T14:50:59.236Z,54.70
2018-12-25T14:56:03.056Z,54.70
2018-12-25T15:01:06.861Z,54.70
2018-12-25T15:06:10.672Z,54.70
2018-12-25T15:11:14.565Z,54.60
2018-12-25T15:16:18.305Z,54.60
2018-12-25T15:21:22.110Z,54.60
2018-12-25T15:26:25.924Z,54.60
2018-12-25T15:31:29.649Z,54.60
2018-12-25T15:36:33.451Z,54.60
2018-12-25T15:41:37.895Z,54.60
2018-12-25T15:46:41.680Z,54.60
2018-12-25T15:51:46.599Z,54.50
2018-12-25T15:56:52.791Z,54.50
2018-12-25T16:01:56.575Z,54.40
2018-12-25T16:07:00.296Z,54.50
2018-12-25T16:12:04.140Z,54.40
2018-12-25T16:17:07.984Z,54.40
2018-12-25T16:22:11.769Z,54.50
2018-12-25T16:27:15.592Z,54.40
2018-12-25T16:32:19.367Z,54.60
2018-12-25T16:37:23.360Z,54.40
2018-12-25T16:42:27.126Z,54.50
2018-12-25T16:47:30.823Z,54.50
2018-12-25T16:52:34.666Z,54.50
2018-12-25T16:57:38.387Z,54.40
2018-12-25T17:02:43.009Z,54.40
2018-12-25T17:07:46.792Z,54.40
2018-12-25T17:12:50.612Z,54.40
2018-12-25T17:17:54.423Z,54.40
2018-12-25T17:22:58.319Z,54.30
2018-12-25T17:28:05.523Z,54.40
2018-12-25T17:33:09.742Z,54.30
2018-12-25T17:38:13.683Z,54.30
2018-12-25T17:43:17.401Z,54.40
2018-12-25T17:48:21.159Z,55.00
2018-12-25T17:53:24.933Z,54.30
2018-12-25T17:58:28.675Z,54.30
2018-12-25T18:03:32.892Z,54.30
2018-12-25T18:08:36.596Z,54.30
2018-12-25T18:13:40.438Z,54.30
2018-12-25T18:18:44.074Z,54.30
2018-12-25T18:23:48.833Z,54.40
2018-12-25T18:28:52.607Z,54.30
2018-12-25T18:33:59.205Z,54.30
2018-12-25T18:39:22.253Z,54.30
2018-12-25T18:44:26.247Z,54.30
2018-12-25T18:49:29.994Z,54.30
2018-12-25T18:54:33.830Z,54.30
2018-12-25T18:59:37.623Z,54.20
2018-12-25T19:04:44.568Z,54.30
2018-12-25T19:09:48.339Z,54.30
2018-12-25T19:15:39.993Z,54.30
2018-12-25T19:20:43.852Z,54.20
2018-12-25T19:25:47.578Z,54.30
2018-12-25T19:30:51.401Z,54.20
2018-12-25T19:35:55.215Z,54.20
2018-12-25T19:40:58.991Z,54.20
2018-12-25T19:46:02.852Z,54.10
2018-12-25T19:51:06.747Z,54.20
2018-12-25T19:56:10.560Z,54.20
2018-12-25T20:01:14.446Z,54.10
2018-12-25T20:06:54.274Z,54.10
2018-12-25T20:12:40.190Z,54.20
2018-12-25T20:18:12.359Z,54.20
2018-12-25T20:24:09.830Z,54.20
2018-12-25T20:29:55.192Z,54.10
2018-12-25T20:35:21.204Z,54.10
2018-12-25T20:41:00.472Z,54.10
2018-12-25T20:46:45.347Z,54.10
2018-12-25T20:52:14.603Z,54.20
2018-12-25T20:58:00.164Z,54.10
2018-12-25T21:03:47.300Z,54.10
2018-12-25T21:09:31.904Z,54.00
2018-12-25T21:15:12.614Z,54.10
2018-12-25T21:20:53.131Z,54.00
2018-12-25T21:26:33.318Z,54.00
2018-12-25T21:31:37.140Z,54.10
2018-12-25T21:36:42.605Z,54.10
2018-12-25T21:41:46.404Z,54.10
2018-12-25T21:46:50.508Z,54.00
2018-12-25T21:51:54.291Z,54.00
2018-12-25T21:56:58.047Z,54.00
2018-12-25T22:02:02.079Z,54.10
2018-12-25T22:07:05.790Z,54.20
2018-12-25T22:12:09.796Z,54.00
2018-12-25T22:17:14.129Z,54.00
2018-12-25T22:22:17.858Z,54.00
2018-12-25T22:27:21.632Z,54.00
2018-12-25T22:32:25.348Z,54.00
2018-12-25T22:37:29.090Z,54.00
2018-12-25T22:42:32.886Z,53.90
2018-12-25T22:47:36.571Z,53.90
2018-12-25T22:52:40.225Z,53.90
2018-12-25T22:57:43.947Z,53.90
2018-12-25T23:02:47.942Z,54.00
2018-12-25T23:07:51.743Z,53.90
2018-12-25T23:12:55.484Z,54.50
2018-12-25T23:17:59.266Z,53.90
2018-12-25T23:23:02.994Z,54.00
2018-12-25T23:28:08.633Z,54.10
2018-12-25T23:33:12.133Z,54.10
2018-12-25T23:38:15.815Z,54.00
2018-12-25T23:43:19.643Z,54.00
2018-12-25T23:48:23.542Z,54.10
2018-12-25T23:53:27.292Z,54.00
2018-12-25T23:58:31.019Z,54.00
